Time;durP1;ratioP1;P1;durP2;ratioP2;P2;SDS_P1;SDS_P2;PMS_P1;PMS_P2;Temp;Humidity;BMP_temperature;BMP_pressure;BME280_temperature;BME280_humidity;BME280_pressure;Samples;Min_cycle;Max_cycle;Signal;HPM_P1;HPM_P2
2022/09/22 00:00:57;;;;;;;16.85;3.50;;;;;;;;;;5014516;28;20062;-64
2022/09/22 00:03:24;;;;;;;16.80;3.10;;;;;;;;;;5014510;28;20026;-65
2022/09/22 00:05:59;;;;;;;16.27;3.53;;;;;;;;;;5014233;28;20045;-65
2022/09/22 00:08:27;;;;;;;15.57;3.25;;;;;;;;;;5014636;28;20041;-65
2022/09/22 00:11:01;;;;;;;16.45;3.63;;;;;;;;;;5014427;28;20390;-65
2022/09/22 00:13:28;;;;;;;14.48;2.72;;;;;;;;;;5014489;28;20382;-65
2022/09/22 00:15:55;;;;;;;17.75;3.38;;;;;;;;;;5014311;28;20026;-65
2022/09/22 00:18:23;;;;;;;15.02;3.15;;;;;;;;;;5012787;28;20033;-64
2022/09/22 00:20:50;;;;;;;17.50;3.15;;;;;;;;;;5014025;28;20509;-65
2022/09/22 00:23:17;;;;;;;17.63;2.70;;;;;;;;;;5014139;28;20466;-65
2022/09/22 00:25:44;;;;;;;12.38;2.75;;;;;;;;;;5013941;28;20045;-65
2022/09/22 00:28:11;;;;;;;19.42;3.03;;;;;;;;;;5013879;28;20429;-65
2022/09/22 00:30:42;;;;;;;13.20;1.92;;;;;;;;;;5013724;28;20103;-65
2022/09/22 00:33:10;;;;;;;22.25;3.08;;;;;;;;;;5012577;28;20021;-64
2022/09/22 00:35:37;;;;;;;14.45;2.25;;;;;;;;;;5013799;28;20507;-65
2022/09/22 00:38:06;;;;;;;16.20;3.00;;;;;;;;;;5012478;28;20478;-65
2022/09/22 00:40:34;;;;;;;16.73;2.80;;;;;;;;;;5013555;28;20022;-66
2022/09/22 00:43:18;;;;;;;17.23;2.42;;;;;;;;;;5013049;28;20481;-66
2022/09/22 00:45:47;;;;;;;13.73;2.58;;;;;;;;;;5012260;28;20022;-66
2022/09/22 00:48:14;;;;;;;16.65;3.00;;;;;;;;;;5013850;28;20029;-66
2022/09/22 00:50:42;;;;;;;22.80;3.33;;;;;;;;;;5013470;28;20025;-66
2022/09/22 00:53:11;;;;;;;17.35;3.17;;;;;;;;;;5013576;28;20018;-66
2022/09/22 00:55:42;;;;;;;17.75;3.10;;;;;;;;;;5013549;28;20367;-66
2022/09/22 00:58:13;;;;;;;17.77;3.70;;;;;;;;;;5013590;28;20029;-66
2022/09/22 01:00:41;;;;;;;14.70;3.10;;;;;;;;;;5013550;28;20092;-66
2022/09/22 01:03:11;;;;;;;19.67;3.25;;;;;;;;;;5013478;28;20018;-67
2022/09/22 01:05:39;;;;;;;13.85;2.85;;;;;;;;;;5013414;28;20088;-67
2022/09/22 01:08:07;;;;;;;16.13;3.13;;;;;;;;;;5013561;28;20022;-67
2022/09/22 01:10:34;;;;;;;8.85;1.73;;;;;;;;;;5013434;28;20029;-67
2022/09/22 01:13:19;;;;;;;15.55;2.33;;;;;;;;;;5013628;28;20036;-67
2022/09/22 01:15:59;;;;;;;11.98;2.40;;;;;;;;;;5013231;28;20032;-67
2022/09/22 01:18:49;;;;;;;14.60;2.53;;;;;;;;;;5013686;28;20022;-67
2022/09/22 01:21:19;;;;;;;14.50;2.30;;;;;;;;;;5011995;28;20485;-66
2022/09/22 01:24:04;;;;;;;19.63;2.97;;;;;;;;;;5013272;28;20038;-66
2022/09/22 01:26:46;;;;;;;11.95;2.08;;;;;;;;;;5013205;28;20033;-67
2022/09/22 01:29:29;;;;;;;14.70;2.38;;;;;;;;;;5013222;28;20026;-66
2022/09/22 01:31:56;;;;;;;13.60;2.42;;;;;;;;;;5013275;28;20485;-65
2022/09/22 01:34:45;;;;;;;11.63;2.25;;;;;;;;;;5013116;28;20477;-65
2022/09/22 01:37:31;;;;;;;12.55;3.10;;;;;;;;;;5011802;28;20034;-65
2022/09/22 01:40:17;;;;;;;11.43;2.35;;;;;;;;;;5013051;28;20029;-65
2022/09/22 01:42:51;;;;;;;13.55;3.20;;;;;;;;;;5013069;28;20041;-65
2022/09/22 01:45:28;;;;;;;12.73;2.33;;;;;;;;;;5013037;28;20424;-66
2022/09/22 01:48:01;;;;;;;10.93;2.42;;;;;;;;;;5013222;28;20343;-66
2022/09/22 01:50:32;;;;;;;8.85;2.03;;;;;;;;;;5012989;28;20022;-65
2022/09/22 01:53:02;;;;;;;8.65;1.90;;;;;;;;;;5013150;28;20022;-66
2022/09/22 01:55:33;;;;;;;8.85;1.70;;;;;;;;;;5016459;28;20508;-66
2022/09/22 01:58:02;;;;;;;5.70;1.25;;;;;;;;;;5016886;28;20030;-66
2022/09/22 02:00:31;;;;;;;7.85;1.80;;;;;;;;;;5016868;28;20506;-65
2022/09/22 02:03:15;;;;;;;7.22;1.65;;;;;;;;;;5016936;28;20407;-66
2022/09/22 02:05:49;;;;;;;8.10;1.63;;;;;;;;;;5016595;28;20038;-65
2022/09/22 02:08:30;;;;;;;6.93;1.30;;;;;;;;;;5015450;28;20098;-66
2022/09/22 02:11:00;;;;;;;7.18;1.60;;;;;;;;;;5016950;28;20104;-66
2022/09/22 02:13:27;;;;;;;6.88;1.85;;;;;;;;;;5016590;28;20022;-66
2022/09/22 02:16:01;;;;;;;7.03;1.42;;;;;;;;;;5016906;28;20036;-66
2022/09/22 02:18:31;;;;;;;7.57;1.50;;;;;;;;;;5016689;28;20029;-66
2022/09/22 02:20:58;;;;;;;7.03;2.00;;;;;;;;;;5016134;28;20034;-66
2022/09/22 02:23:25;;;;;;;7.70;1.73;;;;;;;;;;5016550;28;20426;-65
2022/09/22 02:25:53;;;;;;;6.60;1.40;;;;;;;;;;5016475;28;20022;-65
2022/09/22 02:28:22;;;;;;;5.45;1.63;;;;;;;;;;5016435;28;20026;-65
2022/09/22 02:30:51;;;;;;;7.68;1.98;;;;;;;;;;5016308;28;20498;-64
2022/09/22 02:33:19;;;;;;;7.82;1.58;;;;;;;;;;5016440;28;20022;-65
2022/09/22 02:35:48;;;;;;;12.73;1.70;;;;;;;;;;5016239;28;20017;-65
2022/09/22 02:38:24;;;;;;;8.68;2.33;;;;;;;;;;5016071;28;20461;-64
2022/09/22 02:40:55;;;;;;;6.22;2.05;;;;;;;;;;5016180;28;20109;-65
2022/09/22 02:43:25;;;;;;;10.63;1.75;;;;;;;;;;5014764;28;20436;-65
2022/09/22 02:46:02;;;;;;;8.02;1.90;;;;;;;;;;5014804;28;20037;-65
2022/09/22 02:48:32;;;;;;;11.82;1.77;;;;;;;;;;5016094;28;20033;-65
2022/09/22 02:51:01;;;;;;;8.38;1.80;;;;;;;;;;5015885;28;20030;-64
2022/09/22 02:53:28;;;;;;;10.80;1.98;;;;;;;;;;5015766;28;20022;-64
2022/09/22 02:55:56;;;;;;;10.88;2.58;;;;;;;;;;5014567;28;20029;-65
2022/09/22 02:58:23;;;;;;;10.57;2.25;;;;;;;;;;5014205;28;20161;-65
2022/09/22 03:00:50;;;;;;;8.10;1.73;;;;;;;;;;5011564;28;20026;-65
2022/09/22 03:03:17;;;;;;;8.75;2.00;;;;;;;;;;5013742;28;20097;-66
2022/09/22 03:05:44;;;;;;;11.02;2.08;;;;;;;;;;5014561;28;20548;-65
2022/09/22 03:08:11;;;;;;;9.27;1.90;;;;;;;;;;5015590;28;20029;-65
2022/09/22 03:10:39;;;;;;;7.60;1.98;;;;;;;;;;5015610;28;20080;-65
2022/09/22 03:13:06;;;;;;;8.50;1.80;;;;;;;;;;5015780;28;20028;-65
2022/09/22 03:15:33;;;;;;;9.55;1.83;;;;;;;;;;5015466;28;20029;-65
2022/09/22 03:18:00;;;;;;;11.75;2.20;;;;;;;;;;5015353;28;20482;-65
2022/09/22 03:20:27;;;;;;;8.10;2.10;;;;;;;;;;5015417;28;20113;-65
2022/09/22 03:22:55;;;;;;;10.68;1.58;;;;;;;;;;5015610;28;20068;-65
2022/09/22 03:25:22;;;;;;;10.75;1.70;;;;;;;;;;5014094;28;20022;-65
2022/09/22 03:27:49;;;;;;;9.90;2.00;;;;;;;;;;5015320;28;20382;-65
2022/09/22 03:30:16;;;;;;;7.93;1.98;;;;;;;;;;5015168;28;20022;-65
2022/09/22 03:32:43;;;;;;;8.38;2.08;;;;;;;;;;5013771;28;20033;-65
2022/09/22 03:35:10;;;;;;;10.50;2.47;;;;;;;;;;5015285;28;20018;-65
2022/09/22 03:37:38;;;;;;;6.50;1.83;;;;;;;;;;5015369;28;20474;-65
2022/09/22 03:40:05;;;;;;;8.65;1.77;;;;;;;;;;5014956;28;20099;-66
2022/09/22 03:42:34;;;;;;;8.20;1.48;;;;;;;;;;5014887;28;20403;-66
2022/09/22 03:45:03;;;;;;;6.63;1.50;;;;;;;;;;5015156;28;20041;-66
2022/09/22 03:47:30;;;;;;;10.10;1.73;;;;;;;;;;5014853;28;20367;-66
2022/09/22 03:49:57;;;;;;;10.95;1.90;;;;;;;;;;5014771;28;20026;-64
2022/09/22 03:52:24;;;;;;;8.05;2.13;;;;;;;;;;5014667;28;20030;-65
2022/09/22 03:54:52;;;;;;;9.55;1.95;;;;;;;;;;5014631;28;20105;-64
2022/09/22 03:57:19;;;;;;;11.05;1.73;;;;;;;;;;5014619;28;20057;-64
2022/09/22 03:59:46;;;;;;;11.52;2.47;;;;;;;;;;5014539;28;20026;-65
2022/09/22 04:02:13;;;;;;;9.77;2.28;;;;;;;;;;5014667;28;20026;-65
2022/09/22 04:04:40;;;;;;;12.30;2.22;;;;;;;;;;5014411;28;20088;-65
2022/09/22 04:07:07;;;;;;;11.63;2.10;;;;;;;;;;5013159;28;20058;-65
2022/09/22 04:09:35;;;;;;;14.25;3.10;;;;;;;;;;5014358;28;20026;-65
2022/09/22 04:12:02;;;;;;;9.18;2.80;;;;;;;;;;5014495;28;20049;-64
2022/09/22 04:14:29;;;;;;;12.38;2.45;;;;;;;;;;5014295;28;20363;-65
2022/09/22 04:16:56;;;;;;;9.50;2.47;;;;;;;;;;5014147;28;20033;-65
2022/09/22 04:19:23;;;;;;;9.90;2.35;;;;;;;;;;5014200;28;20026;-67
2022/09/22 04:21:50;;;;;;;11.23;2.13;;;;;;;;;;5014520;28;20018;-65
2022/09/22 04:24:20;;;;;;;11.02;2.50;;;;;;;;;;5014106;28;20477;-65
2022/09/22 04:26:48;;;;;;;8.50;2.10;;;;;;;;;;5014602;28;20458;-64
2022/09/22 04:29:15;;;;;;;12.32;2.95;;;;;;;;;;5012825;28;20033;-65
2022/09/22 04:31:42;;;;;;;8.63;2.30;;;;;;;;;;5014013;28;20453;-64
2022/09/22 04:34:09;;;;;;;10.05;2.53;;;;;;;;;;5013484;28;20482;-65
2022/09/22 04:36:36;;;;;;;9.05;1.98;;;;;;;;;;5012394;28;20021;-65
2022/09/22 04:39:03;;;;;;;10.77;2.42;;;;;;;;;;5011870;28;20026;-66
2022/09/22 04:41:30;;;;;;;11.35;2.42;;;;;;;;;;5011950;28;20022;-65
2022/09/22 04:43:58;;;;;;;6.75;2.03;;;;;;;;;;5010992;28;20050;-63
2022/09/22 04:46:26;;;;;;;8.43;2.05;;;;;;;;;;5011905;28;20022;-64
2022/09/22 04:48:53;;;;;;;10.48;1.73;;;;;;;;;;5013761;28;20389;-65
2022/09/22 04:51:20;;;;;;;10.57;1.88;;;;;;;;;;5013695;28;20504;-65
2022/09/22 04:53:47;;;;;;;8.00;1.88;;;;;;;;;;5013901;28;20034;-65
2022/09/22 04:56:15;;;;;;;11.35;2.33;;;;;;;;;;5012294;28;20030;-67
2022/09/22 04:58:42;;;;;;;10.18;2.53;;;;;;;;;;5012271;28;20106;-65
2022/09/22 05:01:10;;;;;;;10.02;1.92;;;;;;;;;;5012189;28;20044;-66
2022/09/22 05:03:37;;;;;;;9.60;2.25;;;;;;;;;;5013572;28;20462;-65
2022/09/22 05:06:06;;;;;;;9.82;2.85;;;;;;;;;;5013306;28;20041;-65
2022/09/22 05:08:33;;;;;;;12.00;1.83;;;;;;;;;;5013446;28;20030;-65
2022/09/22 05:11:00;;;;;;;9.52;2.22;;;;;;;;;;5013324;28;20030;-66
2022/09/22 05:13:29;;;;;;;10.18;2.22;;;;;;;;;;5013384;28;20033;-65
2022/09/22 05:15:56;;;;;;;11.90;2.20;;;;;;;;;;5013405;28;20026;-66
2022/09/22 05:18:23;;;;;;;10.50;1.98;;;;;;;;;;5013344;28;20056;-65
2022/09/22 05:20:50;;;;;;;11.00;1.90;;;;;;;;;;5013351;28;20026;-65
2022/09/22 05:23:17;;;;;;;10.98;2.42;;;;;;;;;;5013264;28;20018;-65
2022/09/22 05:25:44;;;;;;;13.73;2.60;;;;;;;;;;5013225;28;20055;-65
2022/09/22 05:28:12;;;;;;;11.27;2.58;;;;;;;;;;5012887;28;20541;-64
2022/09/22 05:30:39;;;;;;;10.55;2.50;;;;;;;;;;5013031;28;20474;-65
2022/09/22 05:33:06;;;;;;;13.40;2.30;;;;;;;;;;5013163;28;20021;-65
2022/09/22 05:35:34;;;;;;;8.98;1.60;;;;;;;;;;5013061;28;20080;-65
2022/09/22 05:38:01;;;;;;;11.02;2.20;;;;;;;;;;5012977;28;20030;-65
2022/09/22 05:40:29;;;;;;;11.20;1.98;;;;;;;;;;5013000;28;20022;-65
2022/09/22 05:42:56;;;;;;;10.05;1.83;;;;;;;;;;5013012;28;20440;-65
2022/09/22 05:45:24;;;;;;;12.25;1.80;;;;;;;;;;5013180;28;20466;-65
2022/09/22 05:47:52;;;;;;;10.05;1.80;;;;;;;;;;5012825;28;20028;-65
2022/09/22 05:50:22;;;;;;;10.20;1.95;;;;;;;;;;5012955;28;20536;-66
2022/09/22 05:52:50;;;;;;;9.32;2.08;;;;;;;;;;5011621;28;20394;-66
2022/09/22 05:55:17;;;;;;;12.27;2.28;;;;;;;;;;5013141;28;20109;-66
2022/09/22 05:57:44;;;;;;;14.80;2.35;;;;;;;;;;5012842;28;20032;-65
2022/09/22 06:00:12;;;;;;;10.55;1.92;;;;;;;;;;5013009;28;20018;-65
2022/09/22 06:02:39;;;;;;;10.50;1.80;;;;;;;;;;5012693;28;20022;-66
2022/09/22 06:05:07;;;;;;;14.60;2.28;;;;;;;;;;5012723;28;20030;-66
2022/09/22 06:07:34;;;;;;;10.68;2.15;;;;;;;;;;5011423;28;20030;-66
2022/09/22 06:10:01;;;;;;;8.88;2.10;;;;;;;;;;5012881;28;20046;-66
2022/09/22 06:12:28;;;;;;;9.27;2.20;;;;;;;;;;5012519;28;20101;-66
2022/09/22 06:14:56;;;;;;;9.32;2.17;;;;;;;;;;5012707;28;20025;-65
2022/09/22 06:17:23;;;;;;;10.55;1.98;;;;;;;;;;5012680;28;20061;-66
2022/09/22 06:19:50;;;;;;;8.15;1.70;;;;;;;;;;5011098;28;20033;-65
2022/09/22 06:22:18;;;;;;;9.75;1.77;;;;;;;;;;5012729;28;20057;-66
2022/09/22 06:24:45;;;;;;;7.20;1.73;;;;;;;;;;5011261;28;20474;-66
2022/09/22 06:27:12;;;;;;;8.55;1.98;;;;;;;;;;5012637;28;20022;-66
2022/09/22 06:29:40;;;;;;;8.43;2.08;;;;;;;;;;5012472;28;20048;-66
2022/09/22 06:32:08;;;;;;;8.00;1.88;;;;;;;;;;5012578;28;20030;-66
2022/09/22 06:34:35;;;;;;;6.38;1.20;;;;;;;;;;5011177;28;20113;-66
2022/09/22 06:37:03;;;;;;;10.68;2.25;;;;;;;;;;5012578;28;20037;-65
2022/09/22 06:39:30;;;;;;;7.70;2.22;;;;;;;;;;5012596;28;20037;-66
2022/09/22 06:41:58;;;;;;;7.60;2.00;;;;;;;;;;5016097;28;20018;-65
2022/09/22 06:44:26;;;;;;;7.35;1.90;;;;;;;;;;5016121;28;20026;-65
2022/09/22 06:46:53;;;;;;;10.07;2.00;;;;;;;;;;5016334;28;20068;-66
2022/09/22 06:49:20;;;;;;;8.82;1.77;;;;;;;;;;5015899;28;20034;-66
2022/09/22 06:51:48;;;;;;;6.68;1.60;;;;;;;;;;5016124;28;20022;-65
2022/09/22 06:54:15;;;;;;;10.27;2.85;;;;;;;;;;5015806;28;20049;-65
2022/09/22 06:56:43;;;;;;;10.35;1.85;;;;;;;;;;5014351;28;20033;-66
2022/09/22 06:59:12;;;;;;;11.43;2.55;;;;;;;;;;5014274;28;20397;-65
2022/09/22 07:01:40;;;;;;;11.23;2.30;;;;;;;;;;5015818;28;20076;-65
2022/09/22 07:04:07;;;;;;;10.68;2.45;;;;;;;;;;5015629;28;20393;-65
2022/09/22 07:06:36;;;;;;;10.25;2.38;;;;;;;;;;5014185;28;20049;-65
2022/09/22 07:09:04;;;;;;;8.35;2.10;;;;;;;;;;5015414;28;20029;-65
2022/09/22 07:11:31;;;;;;;8.38;2.28;;;;;;;;;;5014180;28;20092;-64
2022/09/22 07:13:58;;;;;;;11.30;2.30;;;;;;;;;;5014203;28;20022;-65
2022/09/22 07:16:26;;;;;;;11.98;2.40;;;;;;;;;;5015475;28;20029;-64
2022/09/22 07:18:59;;;;;;;13.80;2.47;;;;;;;;;;5015513;28;20390;-64
2022/09/22 07:21:31;;;;;;;15.32;2.30;;;;;;;;;;5015318;28;20030;-64
2022/09/22 07:23:59;;;;;;;9.73;2.33;;;;;;;;;;5015739;28;20029;-65
2022/09/22 07:26:29;;;;;;;18.17;2.58;;;;;;;;;;5015101;28;20433;-64
2022/09/22 07:28:57;;;;;;;;;;;;;;;;;;5015702;28;20014;-64
2022/09/22 07:31:24;;;;;;;11.65;2.95;;;;;;;;;;5013836;28;19905;-65
2022/09/22 07:33:52;;;;;;;15.95;3.42;;;;;;;;;;5013924;28;20022;-65
2022/09/22 07:36:21;;;;;;;11.75;2.88;;;;;;;;;;5015119;28;20088;-65
2022/09/22 07:38:50;;;;;;;14.68;2.60;;;;;;;;;;5014980;28;20033;-65
2022/09/22 07:41:26;;;;;;;18.65;3.47;;;;;;;;;;5014810;28;20034;-65
2022/09/22 07:45:11;;;;;;;10.98;3.63;;;;;;;;;;5015205;28;20013;-64
2022/09/22 07:46:43;;;;;;;;;;;;;;;;;;5015143;28;20503;-65
2022/09/22 07:49:10;;;;;;;12.00;2.05;;;;;;;;;;5014835;28;20358;-64
2022/09/22 07:51:37;;;;;;;14.05;2.85;;;;;;;;;;5014553;28;20022;-65
2022/09/22 07:54:08;;;;;;;13.07;1.80;;;;;;;;;;5014737;28;20390;-64
2022/09/22 07:56:38;;;;;;;8.25;1.50;;;;;;;;;;5014588;28;20441;-64
2022/09/22 07:59:08;;;;;;;11.73;2.22;;;;;;;;;;5014892;28;20409;-65
2022/09/22 08:01:36;;;;;;;10.90;1.80;;;;;;;;;;5014557;28;20025;-64
2022/09/22 08:04:03;;;;;;;7.15;1.40;;;;;;;;;;5014500;28;20435;-66
2022/09/22 08:06:33;;;;;;;7.70;1.30;;;;;;;;;;5014312;28;20466;-66
2022/09/22 08:09:02;;;;;;;9.63;1.48;;;;;;;;;;5014554;28;20473;-67
2022/09/22 08:11:29;;;;;;;5.68;1.17;;;;;;;;;;5013109;28;20026;-64
2022/09/22 08:14:01;;;;;;;5.43;1.20;;;;;;;;;;5014713;28;20433;-65
2022/09/22 08:16:30;;;;;;;7.30;1.38;;;;;;;;;;5014274;28;20096;-65
2022/09/22 08:18:58;;;;;;;9.13;1.27;;;;;;;;;;5014345;28;20026;-65
2022/09/22 08:21:26;;;;;;;4.35;0.90;;;;;;;;;;5014347;28;20037;-63
2022/09/22 08:23:54;;;;;;;5.70;1.15;;;;;;;;;;5014460;28;20080;-64
2022/09/22 08:26:21;;;;;;;7.85;1.20;;;;;;;;;;5014535;28;20025;-66
2022/09/22 08:28:52;;;;;;;6.50;1.45;;;;;;;;;;5012940;28;20022;-65
2022/09/22 08:31:20;;;;;;;7.28;1.40;;;;;;;;;;5014154;28;20030;-66
2022/09/22 08:33:48;;;;;;;7.60;1.60;;;;;;;;;;5014163;28;20088;-64
2022/09/22 08:36:16;;;;;;;7.38;1.48;;;;;;;;;;5014271;28;20029;-65
2022/09/22 08:38:48;;;;;;;6.32;1.45;;;;;;;;;;5014195;28;20133;-64
2022/09/22 08:41:27;;;;;;;7.32;1.48;;;;;;;;;;5014114;28;20022;-65
2022/09/22 08:43:58;;;;;;;7.15;1.20;;;;;;;;;;5013968;28;20014;-65
2022/09/22 08:46:27;;;;;;;6.00;1.00;;;;;;;;;;5014078;28;20050;-65
2022/09/22 08:51:52;;;;;;;5.88;1.23;;;;;;;;;;5013931;28;20165;-67
2022/09/22 08:54:22;;;;;;;5.57;1.20;;;;;;;;;;5014073;28;20029;-66
2022/09/22 08:56:55;;;;;;;6.97;1.90;;;;;;;;;;5012530;28;20032;-66
2022/09/22 08:59:23;;;;;;;5.75;1.17;;;;;;;;;;5013759;28;20018;-66
2022/09/22 09:01:53;;;;;;;8.88;1.58;;;;;;;;;;5013897;28;20103;-66
2022/09/22 09:04:33;;;;;;;4.53;1.20;;;;;;;;;;5011503;28;20113;-63
2022/09/22 09:07:22;;;;;;;6.45;1.40;;;;;;;;;;5013547;28;20279;-64
2022/09/22 09:09:56;;;;;;;8.38;1.33;;;;;;;;;;5013802;28;20057;-64
2022/09/22 09:12:23;;;;;;;5.57;1.27;;;;;;;;;;5013802;28;20101;-66
2022/09/22 09:15:01;;;;;;;11.30;3.17;;;;;;;;;;5013485;28;20343;-64
2022/09/22 09:17:30;;;;;;;5.00;1.25;;;;;;;;;;5013511;28;20026;-64
2022/09/22 09:20:00;;;;;;;7.63;1.20;;;;;;;;;;5013485;28;20030;-65
2022/09/22 09:22:40;;;;;;;6.30;1.83;;;;;;;;;;5013487;28;20026;-66
2022/09/22 09:25:09;;;;;;;6.47;1.60;;;;;;;;;;5013733;28;20536;-65
2022/09/22 09:27:40;;;;;;;8.93;1.52;;;;;;;;;;5013317;28;20502;-65
2022/09/22 09:30:13;;;;;;;7.65;2.00;;;;;;;;;;5011961;28;20026;-64
2022/09/22 09:32:44;;;;;;;7.47;2.10;;;;;;;;;;5013171;28;20383;-65
2022/09/22 09:35:16;;;;;;;6.22;1.48;;;;;;;;;;5011955;28;20482;-64
2022/09/22 09:37:47;;;;;;;6.93;1.73;;;;;;;;;;5013191;28;20100;-65
2022/09/22 09:40:16;;;;;;;6.43;1.50;;;;;;;;;;5013145;28;20601;-65
2022/09/22 09:42:46;;;;;;;9.87;1.93;;;;;;;;;;5011874;28;20025;-65
2022/09/22 09:45:14;;;;;;;8.90;3.15;;;;;;;;;;5011901;28;20309;-65
2022/09/22 09:47:48;;;;;;;8.73;1.80;;;;;;;;;;5013105;28;20021;-65
2022/09/22 09:50:15;;;;;;;8.57;2.30;;;;;;;;;;5012926;28;20097;-65
2022/09/22 09:52:43;;;;;;;9.18;2.10;;;;;;;;;;5011795;28;20026;-65
2022/09/22 09:55:24;;;;;;;7.25;1.42;;;;;;;;;;5013202;28;20057;-66
2022/09/22 09:58:05;;;;;;;8.65;1.65;;;;;;;;;;5013212;28;20076;-65
2022/09/22 10:00:33;;;;;;;11.35;1.83;;;;;;;;;;5012802;28;20030;-65
2022/09/22 10:03:27;;;;;;;9.20;1.63;;;;;;;;;;5011507;28;20022;-65
2022/09/22 10:06:01;;;;;;;6.68;1.73;;;;;;;;;;5011464;28;20053;-65
2022/09/22 10:08:33;;;;;;;9.15;1.90;;;;;;;;;;5013264;28;20018;-64
2022/09/22 10:11:00;;;;;;;9.40;1.73;;;;;;;;;;5011533;28;20030;-65
2022/09/22 10:13:30;;;;;;;8.55;2.15;;;;;;;;;;5012939;28;20022;-65
2022/09/22 10:16:21;;;;;;;7.47;1.95;;;;;;;;;;5015321;28;20053;-65
2022/09/22 10:18:49;;;;;;;8.52;2.88;;;;;;;;;;5013690;28;20052;-65
2022/09/22 10:21:16;;;;;;;9.35;2.92;;;;;;;;;;5016418;28;20037;-65
2022/09/22 10:23:45;;;;;;;6.53;2.13;;;;;;;;;;5016886;28;20072;-65
2022/09/22 10:26:26;;;;;;;8.65;2.03;;;;;;;;;;5016461;28;20018;-65
2022/09/22 10:29:14;;;;;;;10.55;2.10;;;;;;;;;;5015242;28;20076;-65
2022/09/22 10:32:01;;;;;;;8.82;2.13;;;;;;;;;;5012896;28;20038;-66
2022/09/22 10:34:33;;;;;;;10.63;2.70;;;;;;;;;;5016780;28;20018;-66
2022/09/22 10:37:01;;;;;;;9.93;1.98;;;;;;;;;;5016687;28;20044;-65
2022/09/22 10:39:48;;;;;;;8.02;2.15;;;;;;;;;;5016361;28;20025;-65
2022/09/22 10:42:22;;;;;;;8.52;2.50;;;;;;;;;;5016223;28;20023;-65
2022/09/22 10:44:50;;;;;;;6.40;1.98;;;;;;;;;;5016260;28;20022;-65
2022/09/22 10:47:30;;;;;;;5.43;1.65;;;;;;;;;;5015051;28;20026;-65
2022/09/22 10:50:20;;;;;;;5.35;1.48;;;;;;;;;;5015005;28;20029;-65
2022/09/22 10:52:54;;;;;;;5.35;1.73;;;;;;;;;;5005859;28;20042;-66
2022/09/22 10:55:27;;;;;;;7.35;1.92;;;;;;;;;;5014807;28;20030;-66
2022/09/22 10:57:54;;;;;;;6.40;1.60;;;;;;;;;;5016386;28;20018;-65
2022/09/22 11:00:24;;;;;;;6.35;1.85;;;;;;;;;;5015876;28;20033;-65
2022/09/22 11:02:58;;;;;;;7.85;1.60;;;;;;;;;;5015974;28;20068;-65
2022/09/22 11:14:16;;;;;;;6.25;1.70;;;;;;;;;;5015777;28;20045;-66
2022/09/22 11:16:49;;;;;;;7.50;1.98;;;;;;;;;;5015843;28;20441;-66
2022/09/22 11:19:31;;;;;;;9.63;2.08;;;;;;;;;;5015529;28;20486;-65
2022/09/22 11:22:14;;;;;;;5.50;1.70;;;;;;;;;;5015507;28;20018;-65
2022/09/22 11:24:44;;;;;;;9.40;2.45;;;;;;;;;;5015521;28;20014;-65
2022/09/22 11:27:19;;;;;;;9.88;1.95;;;;;;;;;;5014652;28;20045;-65
2022/09/22 11:29:55;;;;;;;8.88;2.00;;;;;;;;;;5015517;28;20101;-65
2022/09/22 11:32:45;;;;;;;7.65;2.00;;;;;;;;;;5014113;28;20447;-65
2022/09/22 11:35:25;;;;;;;9.25;2.35;;;;;;;;;;5014375;28;20084;-65
2022/09/22 11:38:09;;;;;;;5.22;1.90;;;;;;;;;;5015223;28;20030;-65
2022/09/22 11:40:51;;;;;;;8.70;2.40;;;;;;;;;;5013825;28;20457;-65
2022/09/22 11:43:30;;;;;;;9.25;2.03;;;;;;;;;;5015266;28;20022;-65
2022/09/22 11:45:57;;;;;;;7.85;2.60;;;;;;;;;;5015226;28;20069;-65
2022/09/22 11:48:42;;;;;;;9.73;2.20;;;;;;;;;;5014975;28;20386;-65
2022/09/22 11:51:15;;;;;;;7.63;2.13;;;;;;;;;;5014987;28;20479;-64
2022/09/22 11:53:51;;;;;;;8.02;1.90;;;;;;;;;;5014908;28;20389;-64
2022/09/22 11:56:25;;;;;;;7.38;1.90;;;;;;;;;;5014962;28;20022;-64
2022/09/22 11:58:55;;;;;;;5.90;1.88;;;;;;;;;;5014928;28;20105;-64
2022/09/22 12:01:24;;;;;;;8.18;2.22;;;;;;;;;;5014718;28;20025;-64
2022/09/22 12:03:57;;;;;;;5.55;1.83;;;;;;;;;;5014629;28;20064;-65
2022/09/22 12:06:28;;;;;;;5.95;1.60;;;;;;;;;;5014792;28;20050;-65
2022/09/22 12:09:00;;;;;;;6.63;1.60;;;;;;;;;;5013421;28;20025;-64
2022/09/22 12:11:28;;;;;;;5.63;1.50;;;;;;;;;;5013276;28;20041;-64
2022/09/22 12:13:56;;;;;;;5.57;1.80;;;;;;;;;;5014504;28;20026;-63
2022/09/22 12:16:30;;;;;;;5.50;1.55;;;;;;;;;;5014667;28;20026;-65
2022/09/22 12:19:00;;;;;;;6.10;2.45;;;;;;;;;;5014690;28;20474;-64
2022/09/22 12:21:27;;;;;;;6.13;1.77;;;;;;;;;;5014421;28;20026;-64
2022/09/22 12:23:56;;;;;;;5.75;1.73;;;;;;;;;;5014492;28;20282;-65
2022/09/22 12:26:34;;;;;;;8.10;2.08;;;;;;;;;;5014476;28;20041;-65
2022/09/22 12:29:03;;;;;;;6.47;2.47;;;;;;;;;;5014484;28;20024;-65
2022/09/22 12:31:40;;;;;;;6.03;2.83;;;;;;;;;;5013098;28;20030;-64
2022/09/22 12:34:17;;;;;;;7.80;3.17;;;;;;;;;;5014369;28;20054;-64
2022/09/22 12:36:45;;;;;;;9.32;2.35;;;;;;;;;;5014036;28;20040;-65
2022/09/22 12:39:12;;;;;;;7.45;2.38;;;;;;;;;;5014111;28;20050;-64
2022/09/22 12:41:48;;;;;;;6.43;1.80;;;;;;;;;;5014257;28;20547;-65
2022/09/22 12:44:17;;;;;;;3.85;1.85;;;;;;;;;;5014015;28;20026;-65
2022/09/22 12:46:45;;;;;;;5.45;1.58;;;;;;;;;;5013993;28;20030;-65
2022/09/22 12:49:15;;;;;;;6.93;2.00;;;;;;;;;;5013973;28;20049;-65
2022/09/22 12:51:42;;;;;;;6.03;2.00;;;;;;;;;;5013797;28;20026;-65
2022/09/22 12:54:22;;;;;;;5.57;1.65;;;;;;;;;;4996445;28;20421;-65
2022/09/22 12:56:59;;;;;;;6.80;1.90;;;;;;;;;;5013599;28;20505;-65
2022/09/22 12:59:36;;;;;;;7.07;2.45;;;;;;;;;;5013737;28;20034;-65
2022/09/22 13:02:13;;;;;;;5.70;1.98;;;;;;;;;;5013875;28;20148;-65
2022/09/22 13:04:40;;;;;;;8.52;2.22;;;;;;;;;;5013601;28;20036;-65
2022/09/22 13:07:26;;;;;;;8.27;2.55;;;;;;;;;;5013513;28;20402;-65
2022/09/22 13:10:11;;;;;;;7.20;2.00;;;;;;;;;;5012339;28;20113;-65
2022/09/22 13:12:38;;;;;;;6.82;2.00;;;;;;;;;;5012228;28;20022;-65
2022/09/22 13:15:05;;;;;;;7.28;2.15;;;;;;;;;;5012240;28;20034;-65
2022/09/22 13:17:35;;;;;;;6.65;2.17;;;;;;;;;;5013507;28;20030;-65
2022/09/22 13:20:07;;;;;;;4.20;1.70;;;;;;;;;;5013418;28;20025;-65
2022/09/22 13:22:35;;;;;;;5.32;2.40;;;;;;;;;;5013596;28;20029;-65
2022/09/22 13:25:23;;;;;;;6.93;2.10;;;;;;;;;;5013330;28;20032;-65
2022/09/22 13:28:02;;;;;;;7.45;2.78;;;;;;;;;;5013439;28;20382;-65
2022/09/22 13:30:30;;;;;;;7.65;2.47;;;;;;;;;;5013547;28;20022;-65
2022/09/22 13:32:58;;;;;;;4.88;2.20;;;;;;;;;;5013356;28;20018;-65
2022/09/22 13:35:26;;;;;;;7.60;2.72;;;;;;;;;;5013315;28;20397;-65
2022/09/22 13:37:55;;;;;;;7.75;2.67;;;;;;;;;;5013288;28;20026;-65
2022/09/22 13:40:24;;;;;;;5.32;2.08;;;;;;;;;;5013141;28;20022;-65
2022/09/22 13:42:53;;;;;;;5.18;2.10;;;;;;;;;;5013353;28;20022;-65
2022/09/22 13:45:24;;;;;;;6.07;2.42;;;;;;;;;;5013084;28;20021;-65
2022/09/22 13:47:54;;;;;;;6.45;2.25;;;;;;;;;;5013243;28;20022;-65
2022/09/22 13:50:22;;;;;;;4.75;1.92;;;;;;;;;;5014636;28;20029;-65
2022/09/22 13:52:50;;;;;;;4.45;2.00;;;;;;;;;;5017320;28;20474;-65
2022/09/22 13:55:18;;;;;;;5.13;1.70;;;;;;;;;;5017161;28;20076;-65
2022/09/22 13:57:45;;;;;;;4.55;1.67;;;;;;;;;;5017105;28;20038;-65
2022/09/22 14:00:23;;;;;;;6.63;1.83;;;;;;;;;;5016034;28;20113;-65
2022/09/22 14:02:51;;;;;;;4.45;1.98;;;;;;;;;;5016948;28;20038;-65
2022/09/22 14:05:23;;;;;;;3.65;2.03;;;;;;;;;;5016730;28;20382;-65
2022/09/22 14:07:51;;;;;;;5.10;2.17;;;;;;;;;;5017230;28;20018;-65
2022/09/22 14:10:20;;;;;;;5.18;1.92;;;;;;;;;;5016980;28;20030;-65
2022/09/22 14:12:47;;;;;;;5.35;1.98;;;;;;;;;;5016837;28;20026;-65
2022/09/22 14:15:37;;;;;;;4.22;1.60;;;;;;;;;;5016813;28;20510;-66
2022/09/22 14:18:09;;;;;;;4.60;2.00;;;;;;;;;;5016901;28;20026;-64
2022/09/22 14:20:42;;;;;;;3.60;1.95;;;;;;;;;;5016842;28;20037;-64
2022/09/22 14:23:32;;;;;;;5.32;2.20;;;;;;;;;;5016830;28;20100;-65
2022/09/22 14:26:01;;;;;;;5.30;2.00;;;;;;;;;;5013764;28;20030;-64
2022/09/22 14:28:31;;;;;;;3.78;1.80;;;;;;;;;;5016500;28;20096;-65
2022/09/22 14:30:58;;;;;;;5.20;2.38;;;;;;;;;;5016618;28;20033;-65
2022/09/22 14:33:29;;;;;;;4.80;2.00;;;;;;;;;;5015084;28;20041;-65
2022/09/22 14:36:01;;;;;;;4.53;1.85;;;;;;;;;;5016489;28;20033;-64
2022/09/22 14:38:33;;;;;;;3.67;1.83;;;;;;;;;;5016637;28;20382;-64
2022/09/22 14:41:03;;;;;;;5.47;2.28;;;;;;;;;;5015053;28;20116;-64
2022/09/22 14:43:37;;;;;;;5.40;2.08;;;;;;;;;;5016313;28;20030;-65
2022/09/22 14:46:21;;;;;;;3.88;1.88;;;;;;;;;;5016387;28;20101;-65
2022/09/22 14:48:49;;;;;;;6.75;2.25;;;;;;;;;;5016200;28;20021;-65
2022/09/22 14:51:21;;;;;;;3.92;2.00;;;;;;;;;;5016204;28;20113;-65
2022/09/22 14:53:50;;;;;;;2.38;1.70;;;;;;;;;;5016380;28;20382;-65
2022/09/22 14:56:26;;;;;;;3.42;1.65;;;;;;;;;;5016145;28;20100;-65
2022/09/22 14:58:55;;;;;;;3.95;2.05;;;;;;;;;;5016126;28;20556;-65
2022/09/22 15:04:15;;;;;;;4.10;2.20;;;;;;;;;;5016137;28;20037;-65
2022/09/22 15:06:45;;;;;;;4.95;2.00;;;;;;;;;;5015765;28;20049;-65
2022/09/22 15:09:38;;;;;;;3.10;2.20;;;;;;;;;;5016480;28;20018;-65
2022/09/22 15:12:06;;;;;;;5.22;2.03;;;;;;;;;;5014887;28;20094;-65
2022/09/22 15:14:33;;;;;;;3.80;1.80;;;;;;;;;;5014446;28;20033;-64